Sunday, April 20, 2014
08:15 UTC
  |  Log In   |  Register Free
Airport Search:

Skyway Estates Airport
(60G)

Skyway Estates Airport Diagram
No Airport Diagram Available

FAA data valid effective April 3, 2014 until May 29, 2014 (unless otherwise noted).

 
 
 
 
 
 
 
 
 
 
 
 
 
 

Current Aviation Weather for Skyway Estates Airport (60G)

The most recent METAR observation for KFPK was updated at: 0755 UTC
METAR Summary (Translated METAR)
KFPK
200755Z AUTO 00000KT 10SM CLR 03/M01 A3029 RMK AO2 T00341009
KLAN
(15.8 nm NE from KFPK)
200753Z 14006KT 10SM CLR 05/M02 A3032 RMK AO2 SLP269 T00501017
TAF Summary (Translated TAF)
KLAN
(15.8 nm NE from KFPK)
200540Z 2006/2106 16008KT P6SM SCT250 FM201200 16012KT P6SM BKN250 FM201800 21016G26KT P6SM BKN250
  Airport Weather Conditions for 60G

Current weather conditions are
not available for 60G


The nearest NOAA weather station
is at FPK, (7.1 nm SW from 60G)
  
 Current Weather at FPK
38° F
Fair
North winds at 0.0 mph
FPK NOAA Radar

Pressure: 30.29 in
Humidity: 74%
Wind: Calm
Dew Point: 30.4°F
Visibility: 10.00 mi


Airport Weather Forecast for 60G

Translated METAR and TAF for KFPK
Translated METAR for KFPK (0815 UTC 20 April 2014)
found at http://aviationweather.gov/adds/metars/
 
METAR text: KFPK 200755Z AUTO 00000KT 10SM CLR 03/M01 A3029 RMK AO2 T00341009
Conditions at: KFPK (CHARLOTTE , MI, US) observed 0755 UTC 20 April 2014
Temperature: 3.4°C (38°F)
Dewpoint: -0.9°C (30°F) [RH = 73%]
Pressure (altimeter): 30.29 inches Hg (1025.8 mb)
Winds: calm
Visibility: 10 or more miles (16+ km)
Ceiling: at least 12,000 feet AGL
Clouds: sky clear below 12,000 feet AGL
Weather: automated observation with no human augmentation;
there may or may not be significant weather present at this time
Translated TAF for KFPK

There is no translated TAF available for this airport

Find All Airport Services Find A Hotel Find A Rental Car Find A Golf Course Find A Restaurant $100 Hamburger



FBO's on the Field
FBO Company Facility Photos Services Transportation Aviation Fuel Prices: Prices include tax
Catering Weather Repair Courtesy Rental Type 100LL JetA JetA+ MOGAS 8087
 
Add another FBO Facility Photos Catering Weather Repair Courtesy Rental Type 100LL JetA JetA+ MOGAS 8087
Services Transportation Aviation Fuel Prices: Prices include tax
There are no FBO's currently reporting fuel at 60G. List your FBO now


GlobalAir.com Airport Resource Center model-print
model-print
model-print
model-print